MGGT/GUA METAR and TAF weather

Enter ICAO airport designator
Station Type Date Time Source
MGGT METAR 2020/11/27 14:00 UTC NOAA

MGGT 271400Z 36014KT 9999 BKN006 SCT014 17/16 Q1026 A3030


Station Type Date Time Source
MGGT Decoded METAR 2020/11/27 14:00 UTC NOAA

Guatemala Aeropuertola Aurora , Guatemala (MGGT) 14-35N 090-31W 1489M
Nov 27, 2020 - 09:00 AM EST / 2020.11.27 1400 UTC
Wind: from the N (360 degrees) at 16 MPH (14 KT):0
Visibility: greater than 7 mile(s):0
Sky conditions: mostly cloudy
Temperature: 62 F (17 C)
Dew Point: 60 F (16 C)
Relative Humidity: 93%
Pressure (altimeter): 30.3 in. Hg (1026 hPa)
ob: MGGT 271400Z 36014KT 9999 BKN006 SCT014 17/16 Q1026 A3030
cycle: 14

Station Type Date Time Source
MGGT TAF 2020/11/26 12:03 UTC NOAA

TAF TAF MGGT 261100Z 2612/2712 36010KT 9999 FEW014 TX26/2620Z TN15/2612Z
TEMPO 2612/0616 03006KT SCT014
BECMG 2616/2618 03010KT FEW018
TEMPO 2620/2704 8000 VCTSRA SCT020TCU FEW025CB
BECMG 2700/2702 FEW016

Example: see airport list